Time;durP1;ratioP1;P1;durP2;ratioP2;P2;SDS_P1;SDS_P2;PMS_P1;PMS_P2;Temp;Humidity;BMP_temperature;BMP_pressure;BME280_temperature;BME280_humidity;BME280_pressure;Samples;Min_cycle;Max_cycle;Signal;HPM_P1;HPM_P2
2022/11/04 00:01:06;;;;;;;;;;;23.40;64.90;;;;;;1534913;75;1601;-55
2022/11/04 00:03:08;;;;;;;;;;;23.30;65.10;;;;;;1537786;75;732;-58
2022/11/04 00:05:10;;;;;;;;;;;23.40;65.00;;;;;;1545047;75;814;-58
2022/11/04 00:09:31;;;;;;;;;;;23.30;64.90;;;;;;1537379;75;1678;-58
2022/11/04 00:13:53;;;;;;;;;;;23.30;65.00;;;;;;1547013;75;1675;-58
2022/11/04 00:18:15;;;;;;;;;;;23.30;65.10;;;;;;1539529;76;1655;-58
2022/11/04 00:29:37;;;;;;;;;;;23.10;65.70;;;;;;1539891;75;1727;-58
2022/11/04 00:33:59;;;;;;;;;;;23.10;65.80;;;;;;1552240;75;1627;-58
2022/11/04 00:36:01;;;;;;;;;;;23.10;65.80;;;;;;1534999;75;1948;-56
2022/11/04 00:38:03;;;;;;;;;;;23.10;65.80;;;;;;1546503;75;733;-58
2022/11/04 00:40:05;;;;;;;;;;;23.00;65.80;;;;;;1550916;75;721;-58
2022/11/04 00:42:07;;;;;;;;;;;23.10;65.80;;;;;;1544616;75;1508;-59
2022/11/04 00:44:09;;;;;;;;;;;23.20;65.70;;;;;;1551885;75;750;-57
2022/11/04 00:46:11;;;;;;;;;;;23.20;65.70;;;;;;1566237;75;1160;-57
2022/11/04 00:48:13;;;;;;;;;;;23.30;65.30;;;;;;1555479;75;714;-57
2022/11/04 00:50:15;;;;;;;;;;;23.40;65.00;;;;;;1559657;75;827;-57
2022/11/04 00:52:16;;;;;;;;;;;23.40;65.00;;;;;;1556260;75;815;-57
2022/11/04 00:54:18;;;;;;;;;;;23.40;65.00;;;;;;1558922;75;714;-54
2022/11/04 00:56:20;;;;;;;;;;;23.40;64.80;;;;;;1551573;75;1944;-57
2022/11/04 00:58:22;;;;;;;;;;;23.40;64.80;;;;;;1549821;75;760;-58
2022/11/04 01:00:24;;;;;;;;;;;23.50;64.80;;;;;;1548526;75;836;-57
2022/11/04 01:02:26;;;;;;;;;;;23.40;64.80;;;;;;1560815;75;764;-57
2022/11/04 01:04:28;;;;;;;;;;;23.40;64.80;;;;;;1551856;75;737;-58
2022/11/04 01:06:30;;;;;;;;;;;23.40;64.90;;;;;;1543938;75;1162;-56
2022/11/04 01:08:32;;;;;;;;;;;23.30;65.00;;;;;;1547971;75;740;-57
2022/11/04 01:10:35;;;;;;;;;;;23.30;65.20;;;;;;1552002;75;1585;-54
2022/11/04 01:12:37;;;;;;;;;;;23.20;65.20;;;;;;1555570;75;868;-58
2022/11/04 01:14:38;;;;;;;;;;;23.10;65.30;;;;;;1552755;75;765;-56
2022/11/04 01:16:41;;;;;;;;;;;23.10;65.40;;;;;;1553376;75;1913;-56
2022/11/04 01:18:42;;;;;;;;;;;23.10;65.50;;;;;;1554117;75;764;-57
2022/11/04 01:20:44;;;;;;;;;;;23.00;65.40;;;;;;1538442;75;757;-54
2022/11/04 01:22:46;;;;;;;;;;;23.10;65.50;;;;;;1554538;75;732;-53
2022/11/04 01:24:48;;;;;;;;;;;23.10;65.80;;;;;;1554357;75;1324;-57
2022/11/04 01:26:50;;;;;;;;;;;23.10;65.80;;;;;;1551446;75;1133;-57
2022/11/04 01:28:53;;;;;;;;;;;23.00;65.80;;;;;;1553814;75;794;-56
2022/11/04 01:30:55;;;;;;;;;;;23.00;65.80;;;;;;1554559;75;643;-57
2022/11/04 01:32:57;;;;;;;;;;;23.00;65.90;;;;;;1539594;75;702;-57
2022/11/04 01:34:59;;;;;;;;;;;23.00;66.00;;;;;;1540576;75;1949;-58
2022/11/04 01:37:01;;;;;;;;;;;23.00;65.90;;;;;;1541653;75;1165;-57
2022/11/04 01:39:03;;;;;;;;;;;23.00;65.90;;;;;;1550187;75;1625;-58
2022/11/04 01:41:05;;;;;;;;;;;23.10;65.90;;;;;;1543094;75;817;-56
2022/11/04 01:43:14;;;;;;;;;;;23.00;65.70;;;;;;1555824;75;891;-57
2022/11/04 01:45:16;;;;;;;;;;;23.10;65.70;;;;;;1545645;75;927;-57
2022/11/04 01:47:20;;;;;;;;;;;23.10;65.40;;;;;;1542764;75;1134;-58
2022/11/04 01:49:25;;;;;;;;;;;23.20;65.20;;;;;;1534343;75;722;-58
2022/11/04 01:51:27;;;;;;;;;;;23.20;65.10;;;;;;1530865;75;735;-57
2022/11/04 01:53:33;;;;;;;;;;;23.20;65.00;;;;;;1550138;75;1182;-55
2022/11/04 01:55:35;;;;;;;;;;;23.20;65.10;;;;;;1541671;75;1942;-57
2022/11/04 01:57:39;;;;;;;;;;;23.10;65.10;;;;;;1551078;75;1146;-57
2022/11/04 01:59:41;;;;;;;;;;;23.20;65.10;;;;;;1539943;75;762;-54
2022/11/04 02:01:42;;;;;;;;;;;23.20;65.00;;;;;;1542996;75;719;-58
2022/11/04 02:03:49;;;;;;;;;;;23.20;64.90;;;;;;1538057;75;698;-57
2022/11/04 02:05:50;;;;;;;;;;;23.20;64.90;;;;;;1538836;75;1515;-54
2022/11/04 02:07:54;;;;;;;;;;;23.20;64.90;;;;;;1543348;75;1112;-55
2022/11/04 02:09:55;;;;;;;;;;;23.20;65.00;;;;;;1541955;75;747;-59
2022/11/04 02:14:17;;;;;;;;;;;23.30;64.70;;;;;;1541326;75;1644;-57
2022/11/04 02:16:27;;;;;;;;;;;23.30;64.40;;;;;;1546798;75;1970;-57
2022/11/04 02:18:36;;;;;;;;;;;23.20;64.40;;;;;;1524800;75;1519;-58
2022/11/04 02:20:55;;;;;;;;;;;23.20;64.50;;;;;;1547834;75;1223;-58
2022/11/04 02:22:59;;;;;;;;;;;23.20;64.40;;;;;;1543399;75;772;-58
2022/11/04 02:25:05;;;;;;;;;;;23.30;64.40;;;;;;1545984;75;1889;-58
2022/11/04 02:27:08;;;;;;;;;;;23.30;64.40;;;;;;1544036;75;1153;-57
2022/11/04 02:29:14;;;;;;;;;;;23.30;64.40;;;;;;1543615;75;1862;-54
2022/11/04 02:31:23;;;;;;;;;;;23.30;64.20;;;;;;1543998;75;724;-54
2022/11/04 02:33:27;;;;;;;;;;;23.40;64.10;;;;;;1527692;76;1016;-57
2022/11/04 02:35:42;;;;;;;;;;;23.40;63.80;;;;;;1546074;75;1938;-57
2022/11/04 02:37:58;;;;;;;;;;;23.40;63.80;;;;;;1502008;76;1153;-58
2022/11/04 02:40:04;;;;;;;;;;;23.50;63.70;;;;;;1552378;75;1868;-58
2022/11/04 02:42:14;;;;;;;;;;;23.50;63.70;;;;;;1548188;75;717;-58
2022/11/04 02:44:24;;;;;;;;;;;23.40;63.50;;;;;;1545247;75;1915;-57
2022/11/04 02:46:27;;;;;;;;;;;23.50;63.60;;;;;;1537102;75;1141;-54
2022/11/04 02:48:36;;;;;;;;;;;23.40;63.60;;;;;;1544152;75;1315;-56
2022/11/04 02:50:39;;;;;;;;;;;23.30;63.90;;;;;;1545444;75;771;-54
2022/11/04 02:52:43;;;;;;;;;;;23.30;63.80;;;;;;1550651;75;1103;-57
2022/11/04 02:54:55;;;;;;;;;;;23.30;63.90;;;;;;1545941;75;693;-57
2022/11/04 02:56:58;;;;;;;;;;;23.30;64.00;;;;;;1518990;75;1954;-57
2022/11/04 02:59:04;;;;;;;;;;;23.50;63.90;;;;;;1537333;75;768;-58
2022/11/04 03:01:06;;;;;;;;;;;23.40;63.60;;;;;;1544124;75;826;-57
2022/11/04 03:03:09;;;;;;;;;;;23.50;63.50;;;;;;1544787;75;1549;-58
2022/11/04 03:05:12;;;;;;;;;;;23.50;63.50;;;;;;1527335;76;1918;-56
2022/11/04 03:07:14;;;;;;;;;;;23.60;63.20;;;;;;1542680;75;1118;-57
2022/11/04 03:09:16;;;;;;;;;;;23.60;63.10;;;;;;1539429;75;783;-58
2022/11/04 03:11:20;;;;;;;;;;;23.60;63.00;;;;;;1547021;75;794;-56
2022/11/04 03:13:29;;;;;;;;;;;23.60;62.90;;;;;;1548366;75;921;-55
2022/11/04 03:15:32;;;;;;;;;;;23.70;63.00;;;;;;1545729;75;1946;-58
2022/11/04 03:17:52;;;;;;;;;;;23.60;62.90;;;;;;1550127;75;1679;-54
2022/11/04 03:19:56;;;;;;;;;;;23.60;63.00;;;;;;1546005;75;735;-56
2022/11/04 03:22:01;;;;;;;;;;;23.60;63.00;;;;;;1542120;75;1316;-58
2022/11/04 03:24:04;;;;;;;;;;;23.60;63.00;;;;;;1554397;75;758;-58
2022/11/04 03:26:16;;;;;;;;;;;23.60;63.00;;;;;;1550731;75;1138;-58
2022/11/04 03:28:20;;;;;;;;;;;23.60;62.90;;;;;;1551230;75;1046;-58
2022/11/04 03:30:22;;;;;;;;;;;23.60;62.90;;;;;;1551063;75;1921;-56
2022/11/04 03:32:28;;;;;;;;;;;23.70;63.00;;;;;;1546164;75;737;-58
2022/11/04 03:34:30;;;;;;;;;;;23.70;63.00;;;;;;1536298;75;2132;-57
2022/11/04 03:36:32;;;;;;;;;;;23.70;62.90;;;;;;1553206;75;1931;-58
2022/11/04 03:38:34;;;;;;;;;;;23.70;63.00;;;;;;1533761;75;705;-57
2022/11/04 03:40:36;;;;;;;;;;;23.70;62.90;;;;;;1549256;75;803;-57
2022/11/04 03:42:40;;;;;;;;;;;23.70;62.80;;;;;;1558352;75;785;-58
2022/11/04 03:44:42;;;;;;;;;;;23.70;62.80;;;;;;1540334;75;1564;-58
2022/11/04 03:46:44;;;;;;;;;;;23.70;62.80;;;;;;1544100;75;1289;-57
2022/11/04 03:48:47;;;;;;;;;;;23.60;62.80;;;;;;1539935;75;742;-54
2022/11/04 03:50:50;;;;;;;;;;;23.60;62.80;;;;;;1542727;75;796;-56
2022/11/04 03:52:51;;;;;;;;;;;23.60;62.80;;;;;;1541179;75;688;-54
2022/11/04 03:54:53;;;;;;;;;;;23.50;62.90;;;;;;1537522;75;779;-55
2022/11/04 03:57:00;;;;;;;;;;;23.50;63.00;;;;;;1544675;75;1940;-57
2022/11/04 03:59:09;;;;;;;;;;;23.60;63.00;;;;;;1543921;75;1592;-57
2022/11/04 04:01:15;;;;;;;;;;;23.50;63.10;;;;;;1540119;75;754;-57
2022/11/04 04:03:18;;;;;;;;;;;23.50;63.10;;;;;;1538699;75;623;-55
2022/11/04 04:05:21;;;;;;;;;;;23.50;63.10;;;;;;1540454;75;713;-57
2022/11/04 04:07:24;;;;;;;;;;;23.50;63.20;;;;;;1543490;75;1114;-57
2022/11/04 04:09:28;;;;;;;;;;;23.50;63.20;;;;;;1548401;75;2029;-56
2022/11/04 04:11:34;;;;;;;;;;;23.50;63.50;;;;;;1552887;75;2096;-58
2022/11/04 04:13:43;;;;;;;;;;;23.40;63.40;;;;;;1541119;75;1858;-58
2022/11/04 04:15:55;;;;;;;;;;;23.40;63.50;;;;;;1560319;75;1926;-58
2022/11/04 04:18:00;;;;;;;;;;;23.30;63.50;;;;;;1543099;75;1071;-58
2022/11/04 04:20:06;;;;;;;;;;;23.30;63.60;;;;;;1550116;75;1587;-57
2022/11/04 04:22:12;;;;;;;;;;;23.30;63.60;;;;;;1543681;75;781;-56
2022/11/04 04:28:55;;;;;;;;;;;23.30;63.70;;;;;;1548558;75;1649;-57
2022/11/04 04:30:57;;;;;;;;;;;23.30;63.80;;;;;;1544377;75;757;-58
2022/11/04 04:33:06;;;;;;;;;;;23.30;63.70;;;;;;1547845;75;711;-57
2022/11/04 04:37:27;;;;;;;;;;;23.30;63.80;;;;;;1545205;75;1899;-58
2022/11/04 04:46:31;;;;;;;;;;;23.30;63.60;;;;;;1511009;76;1183;-54
2022/11/04 04:48:33;;;;;;;;;;;23.30;63.80;;;;;;1551870;75;732;-58
2022/11/04 04:50:36;;;;;;;;;;;23.30;63.70;;;;;;1553548;75;846;-58
2022/11/04 04:52:39;;;;;;;;;;;23.30;63.50;;;;;;1552883;75;2067;-57
2022/11/04 04:54:41;;;;;;;;;;;23.50;63.50;;;;;;1556409;75;1309;-54
2022/11/04 04:56:43;;;;;;;;;;;23.40;63.40;;;;;;1553343;75;1917;-57
2022/11/04 04:58:45;;;;;;;;;;;23.40;63.40;;;;;;1556296;75;777;-58
2022/11/04 05:00:47;;;;;;;;;;;23.50;63.40;;;;;;1556386;75;745;-58
2022/11/04 05:02:49;;;;;;;;;;;23.50;63.20;;;;;;1558677;75;867;-54
2022/11/04 05:04:51;;;;;;;;;;;23.50;63.20;;;;;;1564061;75;726;-57
2022/11/04 05:06:53;;;;;;;;;;;23.50;63.30;;;;;;1546255;75;1115;-56
2022/11/04 05:08:54;;;;;;;;;;;23.40;63.30;;;;;;1555098;75;1529;-56
2022/11/04 05:10:58;;;;;;;;;;;23.40;63.50;;;;;;1556976;75;853;-57
2022/11/04 05:15:19;;;;;;;;;;;23.50;63.60;;;;;;1551543;75;1647;-58
2022/11/04 05:17:21;;;;;;;;;;;23.50;63.40;;;;;;1558427;75;1940;-55
2022/11/04 05:19:23;;;;;;;;;;;23.50;63.20;;;;;;1559628;75;738;-60
2022/11/04 05:21:25;;;;;;;;;;;23.50;63.50;;;;;;1554444;75;731;-57
2022/11/04 05:23:27;;;;;;;;;;;23.40;63.40;;;;;;1555080;75;1553;-58
2022/11/04 05:25:29;;;;;;;;;;;23.30;64.00;;;;;;1558773;75;800;-58
2022/11/04 05:27:31;;;;;;;;;;;23.50;63.80;;;;;;1548587;75;1130;-58
2022/11/04 05:29:32;;;;;;;;;;;23.40;63.60;;;;;;1563380;75;769;-58
2022/11/04 05:31:34;;;;;;;;;;;23.50;63.70;;;;;;1564605;75;813;-56
2022/11/04 05:33:36;;;;;;;;;;;23.40;63.70;;;;;;1553690;75;709;-57
2022/11/04 05:35:38;;;;;;;;;;;23.40;63.60;;;;;;1554144;75;757;-58
2022/11/04 05:37:40;;;;;;;;;;;23.30;63.70;;;;;;1557580;75;1953;-58
2022/11/04 05:39:42;;;;;;;;;;;23.30;63.80;;;;;;1555137;75;910;-58
2022/11/04 05:41:44;;;;;;;;;;;23.20;63.90;;;;;;1560771;75;761;-57
2022/11/04 05:43:46;;;;;;;;;;;23.20;64.00;;;;;;1555190;75;695;-58
2022/11/04 05:45:48;;;;;;;;;;;23.20;64.10;;;;;;1562595;75;592;-58
2022/11/04 05:47:51;;;;;;;;;;;23.10;64.20;;;;;;1555331;75;1084;-56
2022/11/04 05:49:53;;;;;;;;;;;23.10;64.30;;;;;;1562320;75;1891;-58
2022/11/04 05:51:55;;;;;;;;;;;23.10;64.30;;;;;;1552976;75;1727;-56
2022/11/04 05:53:57;;;;;;;;;;;23.10;64.40;;;;;;1553994;75;798;-58
2022/11/04 05:55:59;;;;;;;;;;;23.10;64.60;;;;;;1563910;75;743;-57
2022/11/04 05:58:00;;;;;;;;;;;23.10;64.60;;;;;;1560238;75;1957;-57
2022/11/04 06:00:02;;;;;;;;;;;23.10;64.60;;;;;;1550288;75;712;-56
2022/11/04 06:02:04;;;;;;;;;;;23.10;64.60;;;;;;1564586;75;764;-55
2022/11/04 06:04:06;;;;;;;;;;;23.10;64.70;;;;;;1565914;75;707;-57
2022/11/04 06:06:08;;;;;;;;;;;23.10;64.70;;;;;;1557522;75;1571;-58
2022/11/04 06:08:10;;;;;;;;;;;23.10;64.70;;;;;;1555263;75;771;-58
2022/11/04 06:10:12;;;;;;;;;;;23.10;64.70;;;;;;1559386;75;801;-58
2022/11/04 06:12:14;;;;;;;;;;;23.10;64.60;;;;;;1554212;75;705;-57
2022/11/04 06:14:16;;;;;;;;;;;23.10;64.60;;;;;;1551722;75;854;-58
2022/11/04 06:16:18;;;;;;;;;;;23.10;64.60;;;;;;1552776;75;1143;-57
2022/11/04 06:18:20;;;;;;;;;;;23.10;64.60;;;;;;1554042;75;1942;-55
2022/11/04 06:20:22;;;;;;;;;;;23.10;64.60;;;;;;1555813;75;1530;-59
2022/11/04 06:22:24;;;;;;;;;;;23.20;64.40;;;;;;1559637;75;899;-56
2022/11/04 06:24:25;;;;;;;;;;;23.30;64.30;;;;;;1547271;75;797;-56
2022/11/04 06:26:29;;;;;;;;;;;23.40;64.20;;;;;;1547219;75;1139;-57
2022/11/04 06:28:31;;;;;;;;;;;23.40;64.00;;;;;;1560664;75;788;-57
2022/11/04 06:30:33;;;;;;;;;;;23.40;63.80;;;;;;1564801;75;771;-55
2022/11/04 06:32:35;;;;;;;;;;;23.40;63.70;;;;;;1552353;75;854;-58
2022/11/04 06:34:37;;;;;;;;;;;23.30;63.70;;;;;;1541713;76;1540;-58
2022/11/04 06:36:38;;;;;;;;;;;23.50;63.70;;;;;;1538339;75;1940;-58
2022/11/04 06:38:40;;;;;;;;;;;23.50;63.50;;;;;;1551295;75;716;-58
2022/11/04 06:40:42;;;;;;;;;;;23.50;63.40;;;;;;1553860;75;699;-58
2022/11/04 06:42:44;;;;;;;;;;;23.50;63.50;;;;;;1544253;76;733;-58
2022/11/04 06:44:46;;;;;;;;;;;23.50;63.40;;;;;;1542872;75;810;-56
2022/11/04 06:46:48;;;;;;;;;;;23.50;63.40;;;;;;1547552;75;1167;-55
2022/11/04 06:48:50;;;;;;;;;;;23.50;63.40;;;;;;1548469;75;1575;-56
2022/11/04 06:50:52;;;;;;;;;;;23.50;63.40;;;;;;1541361;75;749;-58
2022/11/04 06:52:54;;;;;;;;;;;23.40;63.40;;;;;;1546949;75;739;-57
2022/11/04 06:54:56;;;;;;;;;;;23.40;63.60;;;;;;1550404;75;716;-58
2022/11/04 06:56:58;;;;;;;;;;;23.40;63.70;;;;;;1553979;75;1941;-58
2022/11/04 06:59:00;;;;;;;;;;;23.30;63.70;;;;;;1553808;75;732;-58
2022/11/04 07:01:01;;;;;;;;;;;23.50;63.70;;;;;;1553512;75;806;-56
2022/11/04 07:03:03;;;;;;;;;;;23.40;63.40;;;;;;1546159;75;1816;-56
2022/11/04 07:05:08;;;;;;;;;;;23.50;63.40;;;;;;1548557;75;770;-58
2022/11/04 07:07:11;;;;;;;;;;;23.40;63.30;;;;;;1537836;75;1126;-58
2022/11/04 07:09:13;;;;;;;;;;;23.40;63.40;;;;;;1542423;75;738;-58
2022/11/04 07:11:16;;;;;;;;;;;23.40;63.50;;;;;;1541114;75;759;-59
2022/11/04 07:13:17;;;;;;;;;;;23.40;63.70;;;;;;1545527;75;798;-59
2022/11/04 07:15:19;;;;;;;;;;;23.30;63.90;;;;;;1545424;76;1533;-60
2022/11/04 07:17:21;;;;;;;;;;;23.20;64.10;;;;;;1564573;75;1933;-60
2022/11/04 07:19:23;;;;;;;;;;;23.20;64.10;;;;;;1556862;75;749;-56
2022/11/04 07:21:25;;;;;;;;;;;23.40;63.70;;;;;;1541856;75;734;-56
2022/11/04 07:23:27;;;;;;;;;;;23.30;63.40;;;;;;1542911;75;732;-60
2022/11/04 07:25:29;;;;;;;;;;;23.30;63.20;;;;;;1547023;75;722;-58
2022/11/04 07:27:31;;;;;;;;;;;23.30;63.20;;;;;;1550650;75;1093;-60
2022/11/04 07:29:33;;;;;;;;;;;23.30;63.20;;;;;;1538016;75;1523;-59
2022/11/04 07:31:35;;;;;;;;;;;23.30;63.20;;;;;;1549142;75;722;-60
2022/11/04 07:33:36;;;;;;;;;;;23.30;63.20;;;;;;1554082;75;830;-57
2022/11/04 07:35:38;;;;;;;;;;;23.30;63.30;;;;;;1558041;75;791;-58
2022/11/04 07:37:40;;;;;;;;;;;23.30;63.30;;;;;;1551579;75;1955;-55
2022/11/04 07:39:42;;;;;;;;;;;23.20;63.20;;;;;;1554072;75;789;-56
2022/11/04 07:41:44;;;;;;;;;;;23.30;63.40;;;;;;1554981;75;748;-59
2022/11/04 07:43:49;;;;;;;;;;;23.20;63.40;;;;;;1536503;75;1524;-60
2022/11/04 07:46:02;;;;;;;;;;;23.20;63.30;;;;;;1550778;75;746;-56
2022/11/04 07:48:04;;;;;;;;;;;23.20;63.40;;;;;;1539779;75;1784;-58
2022/11/04 07:50:06;;;;;;;;;;;23.20;63.40;;;;;;1548066;75;723;-59
2022/11/04 07:52:08;;;;;;;;;;;23.20;63.60;;;;;;1554898;75;700;-58
2022/11/04 07:54:09;;;;;;;;;;;23.10;63.60;;;;;;1543601;75;661;-57
2022/11/04 07:56:12;;;;;;;;;;;23.10;63.70;;;;;;1533278;75;1163;-58
2022/11/04 07:58:14;;;;;;;;;;;23.20;63.70;;;;;;1545826;75;1940;-59
2022/11/04 08:00:16;;;;;;;;;;;23.20;63.70;;;;;;1548374;75;733;-60
2022/11/04 08:02:18;;;;;;;;;;;23.10;63.70;;;;;;1545786;75;788;-60
2022/11/04 08:04:20;;;;;;;;;;;23.10;63.80;;;;;;1540275;75;1012;-59
2022/11/04 08:06:21;;;;;;;;;;;23.10;63.80;;;;;;1550366;75;1138;-60
2022/11/04 08:08:23;;;;;;;;;;;23.10;63.80;;;;;;1550045;75;730;-60
2022/11/04 08:10:25;;;;;;;;;;;23.10;63.80;;;;;;1544198;75;823;-58
2022/11/04 08:12:27;;;;;;;;;;;23.10;63.80;;;;;;1538426;75;1644;-58
2022/11/04 08:14:30;;;;;;;;;;;23.20;63.80;;;;;;1538966;75;737;-59
2022/11/04 08:16:32;;;;;;;;;;;23.10;63.90;;;;;;1550640;75;1156;-58
2022/11/04 08:18:33;;;;;;;;;;;23.20;63.90;;;;;;1547181;75;1923;-57
2022/11/04 08:20:37;;;;;;;;;;;23.10;63.90;;;;;;1547629;75;785;-59
2022/11/04 08:22:39;;;;;;;;;;;23.10;64.00;;;;;;1543909;75;770;-58
2022/11/04 08:24:40;;;;;;;;;;;23.10;64.00;;;;;;1560621;75;714;-60
2022/11/04 08:26:42;;;;;;;;;;;23.10;64.00;;;;;;1546989;75;1575;-59
2022/11/04 08:28:44;;;;;;;;;;;23.10;64.10;;;;;;1519135;76;705;-57
2022/11/04 08:30:53;;;;;;;;;;;23.00;64.00;;;;;;1547014;75;788;-58
2022/11/04 08:32:55;;;;;;;;;;;23.00;64.10;;;;;;1547282;75;796;-59
2022/11/04 08:34:57;;;;;;;;;;;23.10;64.20;;;;;;1545058;76;724;-57
2022/11/04 08:36:59;;;;;;;;;;;23.00;64.10;;;;;;1551260;75;1152;-58
2022/11/04 08:39:03;;;;;;;;;;;23.00;64.00;;;;;;1540091;75;1915;-57
2022/11/04 08:41:05;;;;;;;;;;;23.00;64.00;;;;;;1548597;75;1698;-58
2022/11/04 08:43:07;;;;;;;;;;;23.00;64.10;;;;;;1543979;76;743;-59
2022/11/04 08:45:09;;;;;;;;;;;23.00;64.10;;;;;;1546878;75;780;-59
2022/11/04 08:47:10;;;;;;;;;;;23.00;64.10;;;;;;1543720;75;1178;-56
2022/11/04 08:49:12;;;;;;;;;;;23.10;64.20;;;;;;1553876;75;746;-57
2022/11/04 08:51:15;;;;;;;;;;;23.10;64.20;;;;;;1549867;75;568;-56
2022/11/04 08:53:17;;;;;;;;;;;23.20;64.00;;;;;;1548488;75;685;-58
2022/11/04 08:55:19;;;;;;;;;;;23.10;63.90;;;;;;1545694;76;1444;-54
2022/11/04 08:57:21;;;;;;;;;;;23.10;63.90;;;;;;1549913;75;1277;-57
2022/11/04 08:59:23;;;;;;;;;;;23.20;63.80;;;;;;1545209;75;1937;-58
2022/11/04 09:01:26;;;;;;;;;;;23.20;63.70;;;;;;1551834;75;726;-56
2022/11/04 09:03:27;;;;;;;;;;;23.30;63.60;;;;;;1545384;75;766;-56
2022/11/04 09:05:29;;;;;;;;;;;23.30;63.40;;;;;;1539138;75;743;-56
2022/11/04 09:07:31;;;;;;;;;;;23.30;63.30;;;;;;1545618;75;1147;-57
2022/11/04 09:09:33;;;;;;;;;;;23.30;63.20;;;;;;1553645;75;1661;-57
2022/11/04 09:11:37;;;;;;;;;;;23.30;63.20;;;;;;1547832;75;646;-58
2022/11/04 09:13:39;;;;;;;;;;;23.40;63.10;;;;;;1543428;75;1782;-57
2022/11/04 09:15:41;;;;;;;;;;;23.30;63.20;;;;;;1549544;75;684;-56
2022/11/04 09:17:43;;;;;;;;;;;23.40;63.30;;;;;;1549129;75;1946;-57
2022/11/04 09:19:45;;;;;;;;;;;23.30;63.30;;;;;;1551150;75;626;-54
2022/11/04 09:21:47;;;;;;;;;;;23.30;63.30;;;;;;1555542;75;1573;-56
2022/11/04 09:23:48;;;;;;;;;;;23.30;63.30;;;;;;1552465;75;801;-54
2022/11/04 09:25:50;;;;;;;;;;;23.30;63.40;;;;;;1559357;75;767;-59
2022/11/04 09:27:52;;;;;;;;;;;23.30;63.50;;;;;;1559998;75;1128;-56
2022/11/04 09:29:54;;;;;;;;;;;23.30;63.50;;;;;;1558164;75;747;-59
2022/11/04 09:31:56;;;;;;;;;;;23.30;63.60;;;;;;1571736;75;890;-59
2022/11/04 09:33:58;;;;;;;;;;;23.30;63.60;;;;;;1549201;75;800;-57
2022/11/04 09:36:00;;;;;;;;;;;23.20;63.50;;;;;;1549556;75;1308;-56
2022/11/04 09:38:01;;;;;;;;;;;23.20;63.60;;;;;;1550057;75;1959;-57
2022/11/04 09:40:04;;;;;;;;;;;23.20;63.60;;;;;;1550778;75;723;-59
2022/11/04 09:42:09;;;;;;;;;;;23.20;63.70;;;;;;1529505;75;813;-59
2022/11/04 09:44:27;;;;;;;;;;;23.20;63.70;;;;;;1549329;75;1341;-57
2022/11/04 09:46:29;;;;;;;;;;;23.10;63.80;;;;;;1544969;75;1184;-56
2022/11/04 09:48:35;;;;;;;;;;;23.10;63.90;;;;;;1543696;75;739;-56
2022/11/04 09:50:38;;;;;;;;;;;23.10;63.90;;;;;;1545095;75;1490;-57
2022/11/04 09:52:41;;;;;;;;;;;23.00;63.80;;;;;;1566923;73;228777;-70
2022/11/04 09:55:05;;;;;;;;;;;23.10;64.00;;;;;;1561255;74;769;-73
2022/11/04 09:57:08;;;;;;;;;;;23.10;63.90;;;;;;1557180;74;642;-74
2022/11/04 09:59:11;;;;;;;;;;;23.00;64.00;;;;;;1576570;73;1926;-72
2022/11/04 10:01:21;;;;;;;;;;;23.10;64.10;;;;;;1592207;73;732;-74
2022/11/04 10:03:25;;;;;;;;;;;23.00;64.00;;;;;;1586106;73;702;-73
2022/11/04 10:05:31;;;;;;;;;;;23.00;64.10;;;;;;1593018;74;1606;-70
2022/11/04 10:07:51;;;;;;;;;;;23.00;64.10;;;;;;1594231;73;1174;-73
2022/11/04 10:09:55;;;;;;;;;;;23.00;64.10;;;;;;1591818;73;1081;-73
2022/11/04 10:12:01;;;;;;;;;;;22.90;64.10;;;;;;1578536;74;1771;-74
2022/11/04 10:14:09;;;;;;;;;;;22.90;64.20;;;;;;1588674;74;720;-74
2022/11/04 10:16:15;;;;;;;;;;;23.00;64.20;;;;;;1580644;74;707;-74
2022/11/04 10:18:28;;;;;;;;;;;23.00;64.20;;;;;;1617128;72;1940;-74
2022/11/04 10:20:43;;;;;;;;;;;23.00;64.20;;;;;;1613686;72;778;-74
2022/11/04 10:22:58;;;;;;;;;;;23.00;64.20;;;;;;1595946;73;1149;-75
2022/11/04 10:25:10;;;;;;;;;;;23.00;64.30;;;;;;1590826;74;733;-75
2022/11/04 10:27:13;;;;;;;;;;;22.90;64.30;;;;;;1592951;73;765;-74
2022/11/04 10:29:16;;;;;;;;;;;23.00;64.20;;;;;;1595812;73;1145;-75
2022/11/04 10:31:18;;;;;;;;;;;23.00;64.20;;;;;;1585982;73;741;-75
2022/11/04 10:33:37;;;;;;;;;;;23.00;64.00;;;;;;1567232;73;1662;-74
2022/11/04 10:35:42;;;;;;;;;;;23.10;64.10;;;;;;1582238;73;676;-74
2022/11/04 10:37:45;;;;;;;;;;;23.00;64.00;;;;;;1653827;71;779;-74
2022/11/04 10:39:47;;;;;;;;;;;23.10;64.00;;;;;;1653364;71;1914;-74
2022/11/04 10:41:49;;;;;;;;;;;23.10;63.90;;;;;;1652473;71;651;-71
2022/11/04 10:43:52;;;;;;;;;;;23.20;63.80;;;;;;1642843;70;756;-73
2022/11/04 10:45:58;;;;;;;;;;;23.20;63.70;;;;;;1645471;71;674;-74
2022/11/04 10:48:02;;;;;;;;;;;23.20;63.50;;;;;;1651182;71;1555;-72
2022/11/04 10:50:05;;;;;;;;;;;23.20;63.50;;;;;;1654608;71;1160;-72
2022/11/04 10:52:07;;;;;;;;;;;23.30;63.60;;;;;;1646413;71;1008;-74
2022/11/04 10:54:09;;;;;;;;;;;23.20;63.50;;;;;;1655100;71;691;-74
2022/11/04 10:56:15;;;;;;;;;;;23.20;63.50;;;;;;1654467;71;792;-73
2022/11/04 10:58:24;;;;;;;;;;;23.20;63.50;;;;;;1659493;70;1915;-75
2022/11/04 11:00:33;;;;;;;;;;;23.30;63.50;;;;;;1655707;71;1558;-74
2022/11/04 11:02:39;;;;;;;;;;;23.20;63.40;;;;;;1654751;71;790;-75
2022/11/04 11:04:44;;;;;;;;;;;23.30;63.40;;;;;;1650165;70;768;-73
2022/11/04 11:06:45;;;;;;;;;;;23.30;63.40;;;;;;1649163;71;1145;-75
2022/11/04 11:08:51;;;;;;;;;;;23.30;63.30;;;;;;1649666;71;1178;-75
2022/11/04 11:11:06;;;;;;;;;;;23.30;63.30;;;;;;1599753;71;1173;-73
2022/11/04 11:13:10;;;;;;;;;;;23.30;63.30;;;;;;1642957;71;1201;-72
2022/11/04 11:15:19;;;;;;;;;;;23.20;63.40;;;;;;1645953;71;1556;-74
2022/11/04 11:17:35;;;;;;;;;;;23.30;63.60;;;;;;1632959;71;1268;-72
2022/11/04 11:19:50;;;;;;;;;;;23.10;63.70;;;;;;1598743;71;1933;-73
2022/11/04 11:21:54;;;;;;;;;;;23.10;63.80;;;;;;1585636;74;980;-73
2022/11/04 11:24:03;;;;;;;;;;;23.10;64.00;;;;;;1550914;74;1170;-74
2022/11/04 11:26:09;;;;;;;;;;;23.00;63.80;;;;;;1571602;74;1457;-75
2022/11/04 11:28:13;;;;;;;;;;;23.00;63.70;;;;;;1564609;74;1137;-73
2022/11/04 11:30:22;;;;;;;;;;;23.00;63.70;;;;;;1537191;74;1828;-74
2022/11/04 11:32:28;;;;;;;;;;;23.00;63.70;;;;;;1545875;74;1033;-74
2022/11/04 11:34:37;;;;;;;;;;;22.90;63.70;;;;;;1526904;74;1047;-73
2022/11/04 11:36:47;;;;;;;;;;;22.90;63.70;;;;;;1545406;74;1116;-74
2022/11/04 11:38:53;;;;;;;;;;;22.90;63.70;;;;;;1550700;76;1954;-71
2022/11/04 11:41:08;;;;;;;;;;;22.90;63.70;;;;;;1498255;78;993;-74
2022/11/04 11:43:28;;;;;;;;;;;22.90;63.70;;;;;;1512230;73;1378;-73
2022/11/04 11:45:32;;;;;;;;;;;22.80;63.70;;;;;;1647790;70;698;-74
2022/11/04 11:47:41;;;;;;;;;;;22.80;63.70;;;;;;1595056;73;1030;-74
2022/11/04 11:49:46;;;;;;;;;;;22.80;63.70;;;;;;1581918;71;1589;-74
2022/11/04 11:51:56;;;;;;;;;;;22.70;63.60;;;;;;1558285;75;1053;-75
2022/11/04 11:54:00;;;;;;;;;;;22.80;63.60;;;;;;1500774;77;1031;-74
2022/11/04 11:56:21;;;;;;;;;;;22.80;63.60;;;;;;1449772;78;1195;-72
2022/11/04 11:58:26;;;;;;;;;;;22.70;63.50;;;;;;1506753;78;1748;-72
2022/11/04 12:00:31;;;;;;;;;;;22.70;63.50;;;;;;1390241;84;922;-73
2022/11/04 12:02:37;;;;;;;;;;;22.70;63.50;;;;;;1399118;83;1067;-73
2022/11/04 12:04:41;;;;;;;;;;;22.70;63.50;;;;;;1475133;78;936;-74
2022/11/04 12:07:02;;;;;;;;;;;22.60;63.50;;;;;;1500690;77;1186;-74
2022/11/04 12:09:06;;;;;;;;;;;22.80;63.40;;;;;;1603565;71;1877;-73
2022/11/04 12:11:12;;;;;;;;;;;22.60;63.30;;;;;;1646314;71;1807;-75
2022/11/04 12:13:16;;;;;;;;;;;22.60;63.20;;;;;;1659656;71;1935;-74
2022/11/04 12:15:22;;;;;;;;;;;22.70;63.20;;;;;;1651842;71;750;-75
2022/11/04 12:17:29;;;;;;;;;;;22.60;63.20;;;;;;1641880;71;1820;-74
2022/11/04 12:19:49;;;;;;;;;;;22.60;63.10;;;;;;1645943;71;1939;-72
2022/11/04 12:22:01;;;;;;;;;;;22.60;63.20;;;;;;1650223;70;760;-73
2022/11/04 12:24:16;;;;;;;;;;;22.60;63.00;;;;;;1596019;74;1080;-73
2022/11/04 12:26:32;;;;;;;;;;;22.60;63.20;;;;;;1596164;73;1742;-72
2022/11/04 12:28:52;;;;;;;;;;;22.70;63.20;;;;;;1529619;76;1138;-73
2022/11/04 12:30:55;;;;;;;;;;;22.90;63.20;;;;;;1527692;76;753;-72
2022/11/04 12:32:59;;;;;;;;;;;22.90;62.90;;;;;;1574353;73;981;-75
2022/11/04 12:35:02;;;;;;;;;;;22.90;62.80;;;;;;1617616;71;906;-74
2022/11/04 12:37:12;;;;;;;;;;;22.90;62.70;;;;;;1653258;71;2321;-73
2022/11/04 12:39:19;;;;;;;;;;;23.00;62.70;;;;;;1648237;70;1952;-73
2022/11/04 12:41:25;;;;;;;;;;;23.00;62.70;;;;;;1652174;71;720;-73
2022/11/04 12:43:34;;;;;;;;;;;22.90;62.70;;;;;;1654079;71;1018;-72
2022/11/04 12:45:46;;;;;;;;;;;22.90;62.60;;;;;;1658229;71;1086;-75
2022/11/04 12:47:48;;;;;;;;;;;23.00;62.60;;;;;;1649860;71;791;-75
2022/11/04 12:49:56;;;;;;;;;;;23.00;62.40;;;;;;1650693;71;1120;-73
2022/11/04 12:52:08;;;;;;;;;;;23.10;62.40;;;;;;1607617;71;965;-73
2022/11/04 12:54:18;;;;;;;;;;;23.10;62.30;;;;;;1649345;71;1638;-72
2022/11/04 12:56:21;;;;;;;;;;;23.10;62.20;;;;;;1658745;71;1949;-76